createdAt,value
2022-09-16T00:01:31.812Z,16.02
2022-09-16T00:04:00.688Z,14.48
2022-09-16T00:06:31.615Z,14.57
2022-09-16T00:09:04.517Z,15.48
2022-09-16T00:11:37.407Z,13.87
2022-09-16T00:14:06.532Z,12.65
2022-09-16T00:16:35.365Z,13.60
2022-09-16T00:19:05.101Z,12.85
2022-09-16T00:21:34.219Z,12.82
2022-09-16T00:24:03.762Z,12.05
2022-09-16T00:26:32.461Z,10.80
2022-09-16T00:29:01.581Z,11.05
2022-09-16T00:31:30.323Z,10.32
2022-09-16T00:33:59.580Z,9.80
2022-09-16T00:36:28.322Z,9.85
2022-09-16T00:38:57.742Z,9.82
2022-09-16T00:41:33.888Z,9.05
2022-09-16T00:44:07.698Z,8.57
2022-09-16T00:46:46.722Z,9.05
2022-09-16T00:49:20.493Z,9.65
2022-09-16T00:51:54.907Z,8.35
2022-09-16T00:54:25.454Z,8.85
2022-09-16T00:56:59.003Z,10.02
2022-09-16T00:59:40.195Z,9.10
2022-09-16T01:02:12.728Z,11.07
2022-09-16T01:04:52.230Z,12.70
2022-09-16T01:07:43.971Z,21.42
2022-09-16T01:10:15.007Z,153.80
2022-09-16T01:12:51.461Z,92.45
2022-09-16T01:15:20.562Z,46.97
2022-09-16T01:18:12.166Z,51.63
2022-09-16T01:20:57.967Z,25.92
2022-09-16T01:23:51.421Z,24.42
2022-09-16T01:26:52.026Z,30.17
2022-09-16T01:29:48.516Z,24.33
2022-09-16T01:32:23.019Z,28.58
2022-09-16T01:35:29.991Z,40.53
2022-09-16T01:38:22.221Z,75.78
2022-09-16T01:44:22.850Z,82.70
2022-09-16T01:47:26.856Z,43.67
2022-09-16T01:50:17.284Z,27.50
2022-09-16T01:52:57.891Z,23.40
2022-09-16T01:55:40.284Z,25.25
2022-09-16T01:58:19.770Z,24.92
2022-09-16T02:00:51.501Z,24.70
2022-09-16T02:03:25.930Z,24.05
2022-09-16T02:06:01.095Z,24.17
2022-09-16T02:08:35.846Z,22.80
2022-09-16T02:11:09.482Z,23.92
2022-09-16T02:13:52.814Z,26.30
2022-09-16T02:16:45.440Z,25.92
2022-09-16T02:19:21.051Z,25.08
2022-09-16T02:21:52.722Z,20.80
2022-09-16T02:24:24.255Z,21.23
2022-09-16T02:27:01.725Z,18.30
2022-09-16T02:29:38.716Z,20.30
2022-09-16T02:32:10.978Z,18.23
2022-09-16T02:34:48.823Z,17.50
2022-09-16T02:37:31.981Z,16.73
2022-09-16T02:40:07.333Z,19.08
2022-09-16T02:42:36.303Z,18.73
2022-09-16T02:45:06.319Z,16.03
2022-09-16T02:47:54.423Z,13.13
2022-09-16T02:50:26.254Z,14.38
2022-09-16T02:53:12.953Z,14.70
2022-09-16T02:56:02.543Z,15.93
2022-09-16T02:58:34.036Z,16.67
2022-09-16T03:01:04.621Z,15.82
2022-09-16T03:03:33.774Z,16.73
2022-09-16T03:06:15.163Z,17.23
2022-09-16T03:08:46.820Z,17.20
2022-09-16T03:11:30.118Z,16.92
2022-09-16T03:14:24.376Z,17.27
2022-09-16T03:17:18.175Z,17.85
2022-09-16T03:20:08.736Z,18.20
2022-09-16T03:22:57.939Z,17.42
2022-09-16T03:25:33.074Z,18.95
2022-09-16T03:28:27.780Z,19.30
2022-09-16T03:31:19.517Z,19.20
2022-09-16T03:34:05.262Z,19.17
2022-09-16T03:36:41.583Z,19.77
2022-09-16T03:39:13.275Z,20.10
2022-09-16T03:41:42.809Z,20.58
2022-09-16T03:44:16.997Z,21.02
2022-09-16T03:46:48.838Z,21.35
2022-09-16T03:49:21.689Z,19.77
2022-09-16T03:55:11.438Z,20.88
2022-09-16T03:57:43.891Z,20.85
2022-09-16T04:00:26.249Z,19.48
2022-09-16T04:03:03.085Z,20.58
2022-09-16T04:06:09.093Z,19.95
2022-09-16T04:11:29.354Z,18.73
2022-09-16T04:14:06.723Z,17.70
2022-09-16T04:16:57.466Z,18.17
2022-09-16T04:19:47.105Z,19.00
2022-09-16T04:22:36.082Z,19.30
2022-09-16T04:25:11.646Z,19.40
2022-09-16T04:27:41.929Z,19.10
2022-09-16T04:30:33.987Z,19.85
2022-09-16T04:36:38.010Z,20.20
2022-09-16T04:41:57.402Z,20.67
2022-09-16T04:53:00.454Z,20.63
2022-09-16T04:55:31.938Z,21.83
2022-09-16T04:58:04.171Z,20.77
2022-09-16T05:01:17.957Z,21.95
2022-09-16T05:01:46.973Z,19.92
2022-09-16T05:07:24.935Z,18.65
2022-09-16T05:12:44.685Z,18.95
2022-09-16T05:15:36.264Z,20.23
2022-09-16T05:18:31.741Z,20.48
2022-09-16T05:21:15.256Z,19.85
2022-09-16T05:23:51.496Z,19.92
2022-09-16T05:26:34.940Z,20.02
2022-09-16T05:29:17.389Z,21.98
2022-09-16T05:31:50.063Z,20.02
2022-09-16T05:34:50.906Z,19.60
2022-09-16T05:43:49.145Z,19.35
2022-09-16T05:46:49.339Z,18.77
2022-09-16T05:49:21.736Z,20.05
2022-09-16T05:52:17.015Z,18.27
2022-09-16T05:55:06.530Z,17.67
2022-09-16T05:58:07.616Z,18.90
2022-09-16T06:00:36.807Z,18.40
2022-09-16T06:03:06.174Z,18.87
2022-09-16T06:05:36.486Z,21.48
2022-09-16T06:08:05.931Z,20.08
2022-09-16T06:10:43.167Z,21.08
2022-09-16T06:13:11.990Z,21.05
2022-09-16T06:15:40.714Z,19.98
2022-09-16T06:18:09.815Z,20.38
2022-09-16T06:20:38.551Z,21.80
2022-09-16T06:23:10.855Z,20.13
2022-09-16T06:25:40.654Z,20.50
2022-09-16T06:28:10.495Z,21.00
2022-09-16T06:30:40.409Z,19.65
2022-09-16T06:33:10.079Z,20.45
2022-09-16T06:35:39.182Z,18.95
2022-09-16T06:38:07.867Z,18.35
2022-09-16T06:40:36.716Z,19.02
2022-09-16T06:43:05.274Z,19.15
2022-09-16T06:45:35.423Z,20.20
2022-09-16T06:48:04.259Z,20.27
2022-09-16T06:50:34.534Z,19.92
2022-09-16T06:53:03.345Z,19.98
2022-09-16T06:55:32.089Z,20.35
2022-09-16T06:58:00.865Z,19.95
2022-09-16T07:00:32.054Z,20.13
2022-09-16T07:03:03.856Z,20.02
2022-09-16T07:05:32.693Z,18.95
2022-09-16T07:08:01.441Z,19.33
2022-09-16T07:10:34.302Z,19.60
2022-09-16T07:13:05.191Z,19.83
2022-09-16T07:15:35.235Z,19.57
2022-09-16T07:18:11.756Z,19.48
2022-09-16T07:20:40.359Z,20.27
2022-09-16T07:23:09.253Z,19.97
2022-09-16T07:28:23.826Z,19.10
2022-09-16T07:30:53.381Z,19.08
2022-09-16T07:33:22.615Z,19.77
2022-09-16T07:35:51.850Z,18.60
2022-09-16T07:38:20.889Z,18.10
2022-09-16T07:40:49.784Z,18.47
2022-09-16T07:43:18.791Z,18.33
2022-09-16T07:45:47.685Z,17.83
2022-09-16T07:48:16.658Z,19.42
2022-09-16T07:50:45.424Z,19.17
2022-09-16T07:53:14.449Z,18.85
2022-09-16T07:55:43.212Z,18.95
2022-09-16T07:58:12.213Z,18.57
2022-09-16T08:00:41.033Z,17.40
2022-09-16T08:03:11.004Z,18.55
2022-09-16T08:05:39.957Z,19.58
2022-09-16T08:08:08.941Z,18.48
2022-09-16T08:10:40.656Z,18.70
2022-09-16T08:13:10.965Z,19.95
2022-09-16T08:15:39.881Z,18.40
2022-09-16T08:18:08.649Z,17.80
2022-09-16T08:20:38.784Z,18.98
2022-09-16T08:23:08.149Z,19.33
2022-09-16T08:25:37.426Z,19.40
2022-09-16T08:28:06.651Z,18.33
2022-09-16T08:30:38.490Z,18.80
2022-09-16T08:33:07.803Z,17.50
2022-09-16T08:35:36.793Z,18.40
2022-09-16T08:38:06.642Z,18.63
2022-09-16T08:40:37.810Z,18.65
2022-09-16T08:43:29.995Z,19.42
2022-09-16T08:46:11.091Z,18.42
2022-09-16T08:48:59.268Z,17.73
2022-09-16T08:51:29.873Z,19.13
2022-09-16T08:54:26.411Z,17.95
2022-09-16T08:56:59.820Z,18.83
2022-09-16T08:59:35.531Z,18.40
2022-09-16T09:02:25.073Z,18.20
2022-09-16T09:04:55.310Z,18.55
2022-09-16T09:07:32.021Z,18.95
2022-09-16T09:10:22.334Z,18.95
2022-09-16T09:13:01.009Z,18.95
2022-09-16T09:15:39.582Z,18.45
2022-09-16T09:18:37.554Z,18.05
2022-09-16T09:21:20.553Z,18.48
2022-09-16T09:24:27.551Z,17.48
2022-09-16T09:27:11.163Z,18.67
2022-09-16T09:29:58.745Z,18.52
2022-09-16T09:33:10.713Z,18.42
2022-09-16T09:35:58.625Z,19.13
2022-09-16T09:38:37.891Z,18.13
2022-09-16T09:41:41.018Z,18.33
2022-09-16T09:44:46.511Z,18.50
2022-09-16T09:47:27.213Z,18.02
2022-09-16T09:50:05.043Z,18.10
2022-09-16T09:52:54.688Z,18.93
2022-09-16T09:55:26.454Z,17.70
2022-09-16T09:58:10.866Z,18.85
2022-09-16T10:00:40.329Z,18.85
2022-09-16T10:03:15.444Z,19.10
2022-09-16T10:05:48.543Z,19.50
2022-09-16T10:08:28.327Z,19.70
2022-09-16T10:11:02.821Z,18.67
2022-09-16T10:13:32.922Z,18.08
2022-09-16T10:16:23.574Z,19.88
2022-09-16T10:19:10.238Z,18.87
2022-09-16T10:21:48.688Z,18.60
2022-09-16T10:24:41.738Z,19.00
2022-09-16T10:27:29.529Z,18.75
2022-09-16T10:30:20.357Z,18.98
2022-09-16T10:32:49.687Z,18.25
2022-09-16T10:35:27.133Z,18.60
2022-09-16T10:38:17.786Z,19.02
2022-09-16T10:40:59.007Z,18.93
2022-09-16T10:43:30.906Z,18.88
2022-09-16T10:46:00.717Z,18.25
2022-09-16T10:48:32.012Z,18.23
2022-09-16T10:51:04.117Z,18.80
2022-09-16T10:53:41.186Z,18.23
2022-09-16T10:56:22.270Z,18.87
2022-09-16T10:59:02.301Z,19.27
2022-09-16T11:01:54.854Z,19.55
2022-09-16T11:04:29.786Z,20.15
2022-09-16T11:07:46.023Z,19.70
2022-09-16T11:13:33.363Z,20.58
2022-09-16T11:16:24.089Z,19.45
2022-09-16T11:19:17.494Z,19.15
2022-09-16T11:22:14.758Z,20.58
2022-09-16T11:25:05.032Z,20.73
2022-09-16T11:27:46.029Z,19.85
2022-09-16T11:30:25.036Z,20.42
2022-09-16T11:35:44.619Z,21.08
2022-09-16T11:38:19.514Z,19.85
2022-09-16T11:41:21.135Z,21.58
2022-09-16T11:44:26.267Z,21.05
2022-09-16T11:47:13.617Z,20.45
2022-09-16T11:49:45.984Z,21.13
2022-09-16T11:53:06.210Z,22.58
2022-09-16T11:56:04.862Z,21.42
2022-09-16T11:58:45.228Z,22.83
2022-09-16T12:01:29.927Z,22.15
2022-09-16T12:04:28.692Z,22.90
2022-09-16T12:07:35.131Z,22.58
2022-09-16T12:10:14.262Z,24.60
2022-09-16T12:12:59.574Z,25.05
2022-09-16T12:15:49.981Z,23.93
2022-09-16T12:18:34.150Z,24.90
2022-09-16T12:21:35.196Z,24.48
2022-09-16T12:24:44.504Z,26.00
2022-09-16T12:27:23.183Z,24.55
2022-09-16T12:30:14.508Z,25.83
2022-09-16T12:33:12.068Z,27.10
2022-09-16T12:35:57.526Z,25.77
2022-09-16T12:38:27.412Z,25.17
2022-09-16T12:41:17.381Z,26.40
2022-09-16T12:44:33.860Z,27.33
2022-09-16T12:47:26.781Z,27.83
2022-09-16T12:50:14.222Z,26.98
2022-09-16T12:53:07.837Z,28.88
2022-09-16T12:55:40.048Z,27.00
2022-09-16T12:58:33.396Z,29.10
2022-09-16T13:01:30.819Z,29.02
2022-09-16T13:04:10.418Z,28.20
2022-09-16T13:06:46.197Z,28.08
2022-09-16T13:09:21.958Z,28.33
2022-09-16T13:12:41.018Z,29.63
2022-09-16T13:15:26.196Z,27.98
2022-09-16T13:17:55.706Z,28.48
2022-09-16T13:20:49.207Z,28.73
2022-09-16T13:23:35.038Z,29.02
2022-09-16T13:26:10.398Z,29.17
2022-09-16T13:28:42.931Z,28.00
2022-09-16T13:31:34.202Z,27.42
2022-09-16T13:34:18.294Z,28.52
2022-09-16T13:36:47.815Z,28.58
2022-09-16T13:39:33.410Z,30.15
2022-09-16T13:42:21.593Z,28.60
2022-09-16T13:44:50.889Z,29.00
2022-09-16T13:47:32.277Z,30.05
2022-09-16T13:50:15.545Z,30.60
2022-09-16T13:52:45.495Z,28.80
2022-09-16T13:55:28.440Z,29.98
2022-09-16T13:58:00.017Z,29.95
2022-09-16T14:00:47.115Z,30.55
2022-09-16T14:03:35.189Z,31.60
2022-09-16T14:06:32.257Z,29.52
2022-09-16T14:09:28.438Z,31.83
2022-09-16T14:12:18.683Z,29.50
2022-09-16T14:14:48.533Z,31.52
2022-09-16T14:17:42.660Z,30.73
2022-09-16T14:20:17.825Z,31.58
2022-09-16T14:22:47.437Z,31.42
2022-09-16T14:25:34.502Z,30.73
2022-09-16T14:28:24.220Z,33.33
2022-09-16T14:31:01.418Z,32.40
2022-09-16T14:33:34.517Z,32.60
2022-09-16T14:36:34.183Z,32.25
2022-09-16T14:39:25.174Z,31.67
2022-09-16T14:42:06.245Z,31.48
2022-09-16T14:44:48.084Z,33.10
2022-09-16T14:47:50.153Z,31.50
2022-09-16T14:50:27.816Z,32.35
2022-09-16T14:53:05.449Z,30.52
2022-09-16T14:55:38.604Z,29.50
2022-09-16T14:58:10.897Z,30.63
2022-09-16T15:01:01.207Z,30.77
2022-09-16T15:04:06.650Z,29.55
2022-09-16T15:06:44.548Z,30.70
2022-09-16T15:09:23.530Z,33.50
2022-09-16T15:11:57.955Z,30.55
2022-09-16T15:14:27.976Z,32.25
2022-09-16T15:17:05.739Z,32.70
2022-09-16T15:19:39.089Z,33.60
2022-09-16T15:22:16.735Z,33.30
2022-09-16T15:24:54.023Z,32.92
2022-09-16T15:27:31.453Z,32.15
2022-09-16T15:30:02.230Z,30.42
2022-09-16T15:32:32.786Z,30.42
2022-09-16T15:35:24.573Z,32.03
2022-09-16T15:37:55.479Z,31.75
2022-09-16T15:40:27.683Z,31.88
2022-09-16T15:43:17.053Z,33.47
2022-09-16T15:45:58.957Z,33.97
2022-09-16T15:48:32.661Z,34.17
2022-09-16T15:51:26.981Z,34.70
2022-09-16T15:54:22.087Z,34.88
2022-09-16T15:57:00.069Z,36.30
2022-09-16T15:59:49.012Z,34.63
2022-09-16T16:02:37.614Z,33.30
2022-09-16T16:05:13.393Z,34.78
2022-09-16T16:07:51.729Z,33.35
2022-09-16T16:10:24.868Z,32.83
2022-09-16T16:12:55.634Z,32.47
2022-09-16T16:15:31.028Z,32.00
2022-09-16T16:18:06.572Z,32.08
2022-09-16T16:20:39.128Z,32.55
2022-09-16T16:23:08.785Z,32.57
2022-09-16T16:25:38.862Z,31.50
2022-09-16T16:28:07.807Z,31.52
2022-09-16T16:30:37.168Z,31.90
2022-09-16T16:33:09.048Z,32.95
2022-09-16T16:35:38.170Z,33.22
2022-09-16T16:38:07.128Z,33.83
2022-09-16T16:40:36.799Z,33.67
2022-09-16T16:43:05.855Z,33.22
2022-09-16T16:45:34.856Z,33.65
2022-09-16T16:48:03.873Z,33.90
2022-09-16T16:50:33.464Z,33.97
2022-09-16T16:53:02.248Z,34.90
2022-09-16T16:55:31.417Z,33.13
2022-09-16T16:58:00.241Z,33.35
2022-09-16T17:00:29.955Z,33.25
2022-09-16T17:02:58.895Z,31.07
2022-09-16T17:05:27.913Z,32.10
2022-09-16T17:07:56.845Z,32.65
2022-09-16T17:10:26.889Z,32.05
2022-09-16T17:12:56.367Z,31.65
2022-09-16T17:15:26.283Z,30.75
2022-09-16T17:17:55.381Z,30.75
2022-09-16T17:20:24.343Z,28.13
2022-09-16T17:22:54.172Z,28.13
2022-09-16T17:25:23.035Z,28.38
2022-09-16T17:27:52.079Z,25.77
2022-09-16T17:30:20.895Z,24.88
2022-09-16T17:32:50.187Z,23.45
2022-09-16T17:35:18.999Z,21.75
2022-09-16T17:37:48.000Z,22.13
2022-09-16T17:40:17.029Z,23.02
2022-09-16T17:42:46.036Z,22.75
2022-09-16T17:45:14.873Z,21.85
2022-09-16T17:47:43.970Z,21.30
2022-09-16T17:50:12.773Z,21.27
2022-09-16T17:52:42.171Z,21.23
2022-09-16T17:55:12.648Z,21.67
2022-09-16T17:57:41.888Z,22.38
2022-09-16T18:00:11.276Z,23.13
2022-09-16T18:02:44.228Z,21.83
2022-09-16T18:05:13.314Z,21.02
2022-09-16T18:07:46.055Z,20.10
2022-09-16T18:10:15.632Z,19.55
2022-09-16T18:12:44.422Z,18.65
2022-09-16T18:15:13.575Z,18.77
2022-09-16T18:17:42.916Z,18.30
2022-09-16T18:20:12.801Z,19.17
2022-09-16T18:22:41.920Z,18.73
2022-09-16T18:25:11.380Z,18.38
2022-09-16T18:27:43.994Z,19.00
2022-09-16T18:30:14.613Z,17.85
2022-09-16T18:32:43.684Z,18.85
2022-09-16T18:35:13.536Z,18.70
2022-09-16T18:37:42.706Z,17.88
2022-09-16T18:40:12.265Z,17.83
2022-09-16T18:42:41.351Z,18.75
2022-09-16T18:45:11.055Z,18.70
2022-09-16T18:47:40.254Z,18.60
2022-09-16T18:50:09.672Z,18.00
2022-09-16T18:52:38.873Z,18.05
2022-09-16T18:55:08.285Z,18.85
2022-09-16T18:57:37.204Z,18.70
2022-09-16T19:00:07.776Z,19.05
2022-09-16T19:02:38.293Z,18.40
2022-09-16T19:05:07.935Z,19.10
2022-09-16T19:07:37.493Z,19.27
2022-09-16T19:10:07.533Z,19.27
2022-09-16T19:12:39.257Z,20.50
2022-09-16T19:15:09.513Z,20.83
2022-09-16T19:17:38.519Z,21.67
2022-09-16T19:20:08.768Z,20.42
2022-09-16T19:22:38.804Z,20.83
2022-09-16T19:25:08.382Z,20.33
2022-09-16T19:27:40.104Z,21.03
2022-09-16T19:30:09.539Z,21.80
2022-09-16T19:32:39.128Z,21.60
2022-09-16T19:35:08.523Z,22.02
2022-09-16T19:37:37.770Z,22.83
2022-09-16T19:40:07.071Z,21.48
2022-09-16T19:42:36.152Z,20.58
2022-09-16T19:45:05.212Z,22.50
2022-09-16T19:47:34.370Z,21.83
2022-09-16T19:50:03.692Z,22.42
2022-09-16T19:52:32.885Z,20.38
2022-09-16T19:55:01.743Z,20.63
2022-09-16T19:57:30.901Z,21.77
2022-09-16T19:59:59.910Z,22.52
2022-09-16T20:02:29.226Z,20.83
2022-09-16T20:04:58.252Z,21.02
2022-09-16T20:07:27.428Z,21.05
2022-09-16T20:09:56.234Z,22.17
2022-09-16T20:12:25.577Z,21.50
2022-09-16T20:14:54.340Z,21.05
2022-09-16T20:17:23.315Z,21.75
2022-09-16T20:19:52.369Z,22.55
2022-09-16T20:22:21.320Z,21.23
2022-09-16T20:25:06.483Z,21.65
2022-09-16T20:27:40.535Z,22.05
2022-09-16T20:30:09.744Z,21.60
2022-09-16T20:32:38.918Z,21.42
2022-09-16T20:35:08.209Z,21.97
2022-09-16T20:37:37.260Z,22.63
2022-09-16T20:40:06.560Z,22.90
2022-09-16T20:42:35.850Z,23.55
2022-09-16T20:45:04.812Z,26.48
2022-09-16T20:47:33.830Z,29.33
2022-09-16T20:50:03.568Z,26.90
2022-09-16T20:52:34.195Z,25.73
2022-09-16T20:55:07.265Z,26.13
2022-09-16T20:57:36.283Z,25.45
2022-09-16T21:00:05.619Z,24.77
2022-09-16T21:02:35.271Z,25.88
2022-09-16T21:05:05.799Z,25.65
2022-09-16T21:07:34.830Z,26.40
2022-09-16T21:10:03.676Z,24.65
2022-09-16T21:12:32.759Z,27.25
2022-09-16T21:15:01.538Z,26.23
2022-09-16T21:17:31.671Z,25.55
2022-09-16T21:20:00.446Z,26.00
2022-09-16T21:22:30.103Z,27.27
2022-09-16T21:24:59.358Z,26.60
2022-09-16T21:27:28.339Z,27.77
2022-09-16T21:29:57.118Z,27.60
2022-09-16T21:32:26.700Z,29.08
2022-09-16T21:34:55.490Z,28.15
2022-09-16T21:37:24.734Z,27.73
2022-09-16T21:39:53.596Z,25.90
2022-09-16T21:42:22.627Z,26.48
2022-09-16T21:44:51.367Z,22.98
2022-09-16T21:47:20.542Z,21.77
2022-09-16T21:49:50.847Z,18.73
2022-09-16T21:52:20.864Z,14.73
2022-09-16T21:54:49.700Z,12.75
2022-09-16T21:57:19.163Z,13.73
2022-09-16T21:59:48.142Z,13.30
2022-09-16T22:02:17.358Z,13.48
2022-09-16T22:04:46.174Z,13.95
2022-09-16T22:07:15.486Z,14.20
2022-09-16T22:09:44.581Z,14.50
2022-09-16T22:12:13.572Z,15.30
2022-09-16T22:14:42.583Z,15.57
2022-09-16T22:17:11.624Z,15.20
2022-09-16T22:19:40.398Z,15.82
2022-09-16T22:22:09.423Z,15.50
2022-09-16T22:24:38.203Z,15.68
2022-09-16T22:27:07.366Z,15.65
2022-09-16T22:29:36.463Z,15.98
2022-09-16T22:32:05.619Z,16.52
2022-09-16T22:34:36.705Z,15.38
2022-09-16T22:37:05.750Z,13.98
2022-09-16T22:39:34.555Z,10.85
2022-09-16T22:42:03.656Z,10.07
2022-09-16T22:44:32.786Z,12.52
2022-09-16T22:47:01.756Z,10.27
2022-09-16T22:49:31.538Z,10.73
2022-09-16T22:52:00.502Z,9.75
2022-09-16T22:54:29.323Z,8.30
2022-09-16T22:56:58.369Z,6.80
2022-09-16T22:59:27.258Z,7.20
2022-09-16T23:01:56.451Z,11.20
2022-09-16T23:04:28.235Z,10.65
2022-09-16T23:06:57.285Z,8.27
2022-09-16T23:09:26.016Z,12.05
2022-09-16T23:11:55.011Z,12.23
2022-09-16T23:14:27.258Z,11.63
2022-09-16T23:16:56.498Z,8.38
2022-09-16T23:19:25.830Z,8.70
2022-09-16T23:21:54.819Z,9.57
2022-09-16T23:24:24.734Z,9.23
2022-09-16T23:26:53.847Z,10.95
2022-09-16T23:29:22.753Z,11.10
2022-09-16T23:31:52.125Z,10.90
2022-09-16T23:34:22.782Z,11.82
2022-09-16T23:36:51.936Z,10.82
2022-09-16T23:39:21.723Z,10.85
2022-09-16T23:41:51.398Z,9.90
2022-09-16T23:44:20.240Z,9.00
2022-09-16T23:46:49.568Z,9.68
2022-09-16T23:49:21.112Z,9.60
2022-09-16T23:51:50.633Z,10.95
2022-09-16T23:54:19.426Z,9.45
2022-09-16T23:56:48.385Z,9.10
2022-09-16T23:59:17.263Z,8.82
